sensor_id;sensor_type;location;lat;lon;timestamp;P1;durP1;ratioP1;P2;durP2;ratioP2
23506;SDS011;11930;53.076;18.250;2024-02-04T00:00:25;8.53;;;2.40;;
23506;SDS011;11930;53.076;18.250;2024-02-04T00:03:11;8.10;;;2.30;;
23506;SDS011;11930;53.076;18.250;2024-02-04T00:05:37;9.00;;;2.53;;
23506;SDS011;11930;53.076;18.250;2024-02-04T00:08:03;5.77;;;2.23;;
23506;SDS011;11930;53.076;18.250;2024-02-04T00:10:30;8.90;;;2.33;;
23506;SDS011;11930;53.076;18.250;2024-02-04T00:12:56;8.37;;;2.73;;
23506;SDS011;11930;53.076;18.250;2024-02-04T00:15:22;11.47;;;2.23;;
23506;SDS011;11930;53.076;18.250;2024-02-04T00:17:48;10.87;;;2.37;;
23506;SDS011;11930;53.076;18.250;2024-02-04T00:20:14;11.60;;;2.50;;
23506;SDS011;11930;53.076;18.250;2024-02-04T00:22:41;12.07;;;2.23;;
23506;SDS011;11930;53.076;18.250;2024-02-04T00:25:07;6.83;;;2.30;;
23506;SDS011;11930;53.076;18.250;2024-02-04T00:27:37;9.13;;;2.07;;
23506;SDS011;11930;53.076;18.250;2024-02-04T00:30:04;5.93;;;1.90;;
23506;SDS011;11930;53.076;18.250;2024-02-04T00:32:31;10.00;;;2.27;;
23506;SDS011;11930;53.076;18.250;2024-02-04T00:34:57;7.03;;;2.13;;
23506;SDS011;11930;53.076;18.250;2024-02-04T00:37:23;13.50;;;2.70;;
23506;SDS011;11930;53.076;18.250;2024-02-04T00:39:49;9.10;;;2.40;;
23506;SDS011;11930;53.076;18.250;2024-02-04T00:42:15;8.50;;;2.00;;
23506;SDS011;11930;53.076;18.250;2024-02-04T00:44:41;7.53;;;2.30;;
23506;SDS011;11930;53.076;18.250;2024-02-04T00:47:08;8.63;;;2.07;;
23506;SDS011;11930;53.076;18.250;2024-02-04T00:49:34;8.20;;;1.97;;
23506;SDS011;11930;53.076;18.250;2024-02-04T00:52:00;10.40;;;2.40;;
23506;SDS011;11930;53.076;18.250;2024-02-04T00:54:26;7.63;;;2.00;;
23506;SDS011;11930;53.076;18.250;2024-02-04T00:56:53;11.33;;;2.37;;
23506;SDS011;11930;53.076;18.250;2024-02-04T00:59:19;10.03;;;2.00;;
23506;SDS011;11930;53.076;18.250;2024-02-04T01:01:46;7.63;;;2.30;;
23506;SDS011;11930;53.076;18.250;2024-02-04T01:04:12;8.33;;;2.20;;
23506;SDS011;11930;53.076;18.250;2024-02-04T01:06:38;8.13;;;2.57;;
23506;SDS011;11930;53.076;18.250;2024-02-04T01:09:04;9.03;;;2.43;;
23506;SDS011;11930;53.076;18.250;2024-02-04T01:11:31;9.33;;;2.50;;
23506;SDS011;11930;53.076;18.250;2024-02-04T01:13:57;12.37;;;2.50;;
23506;SDS011;11930;53.076;18.250;2024-02-04T01:16:23;10.07;;;2.63;;
23506;SDS011;11930;53.076;18.250;2024-02-04T01:18:49;7.33;;;2.57;;
23506;SDS011;11930;53.076;18.250;2024-02-04T01:21:15;8.47;;;2.40;;
23506;SDS011;11930;53.076;18.250;2024-02-04T01:23:41;12.37;;;2.87;;
23506;SDS011;11930;53.076;18.250;2024-02-04T01:26:08;11.47;;;2.50;;
23506;SDS011;11930;53.076;18.250;2024-02-04T01:28:34;9.60;;;2.80;;
23506;SDS011;11930;53.076;18.250;2024-02-04T01:31:01;14.17;;;3.20;;
23506;SDS011;11930;53.076;18.250;2024-02-04T01:33:27;10.40;;;2.60;;
23506;SDS011;11930;53.076;18.250;2024-02-04T01:35:53;11.73;;;2.80;;
23506;SDS011;11930;53.076;18.250;2024-02-04T01:38:20;9.47;;;2.63;;
23506;SDS011;11930;53.076;18.250;2024-02-04T01:40:47;11.80;;;2.60;;
23506;SDS011;11930;53.076;18.250;2024-02-04T01:43:13;9.27;;;2.87;;
23506;SDS011;11930;53.076;18.250;2024-02-04T01:45:39;6.23;;;2.30;;
23506;SDS011;11930;53.076;18.250;2024-02-04T01:48:05;10.23;;;2.90;;
23506;SDS011;11930;53.076;18.250;2024-02-04T01:50:32;7.97;;;2.50;;
23506;SDS011;11930;53.076;18.250;2024-02-04T01:52:58;7.80;;;2.87;;
23506;SDS011;11930;53.076;18.250;2024-02-04T01:55:25;8.63;;;2.40;;
23506;SDS011;11930;53.076;18.250;2024-02-04T01:57:51;12.97;;;2.93;;
23506;SDS011;11930;53.076;18.250;2024-02-04T02:00:17;10.47;;;3.10;;
23506;SDS011;11930;53.076;18.250;2024-02-04T02:02:44;10.63;;;2.40;;
23506;SDS011;11930;53.076;18.250;2024-02-04T02:05:12;8.13;;;2.40;;
23506;SDS011;11930;53.076;18.250;2024-02-04T02:07:39;7.53;;;2.60;;
23506;SDS011;11930;53.076;18.250;2024-02-04T02:10:07;10.87;;;2.30;;
23506;SDS011;11930;53.076;18.250;2024-02-04T02:12:40;9.77;;;2.50;;
23506;SDS011;11930;53.076;18.250;2024-02-04T02:15:20;7.80;;;2.57;;
23506;SDS011;11930;53.076;18.250;2024-02-04T02:17:59;9.57;;;2.13;;
23506;SDS011;11930;53.076;18.250;2024-02-04T02:23:48;10.90;;;2.60;;
23506;SDS011;11930;53.076;18.250;2024-02-04T02:26:19;9.40;;;2.40;;
23506;SDS011;11930;53.076;18.250;2024-02-04T02:28:47;11.00;;;2.23;;
23506;SDS011;11930;53.076;18.250;2024-02-04T02:31:13;10.97;;;2.13;;
23506;SDS011;11930;53.076;18.250;2024-02-04T02:33:39;12.07;;;2.47;;
23506;SDS011;11930;53.076;18.250;2024-02-04T02:36:06;9.53;;;2.30;;
23506;SDS011;11930;53.076;18.250;2024-02-04T02:39:21;11.00;;;2.40;;
23506;SDS011;11930;53.076;18.250;2024-02-04T02:41:47;8.67;;;2.27;;
23506;SDS011;11930;53.076;18.250;2024-02-04T02:44:16;11.17;;;2.43;;
23506;SDS011;11930;53.076;18.250;2024-02-04T02:46:44;10.63;;;2.67;;
23506;SDS011;11930;53.076;18.250;2024-02-04T02:49:11;9.30;;;2.80;;
23506;SDS011;11930;53.076;18.250;2024-02-04T02:51:37;11.73;;;2.80;;
23506;SDS011;11930;53.076;18.250;2024-02-04T02:54:04;9.67;;;2.60;;
23506;SDS011;11930;53.076;18.250;2024-02-04T02:56:30;8.80;;;2.20;;
23506;SDS011;11930;53.076;18.250;2024-02-04T02:58:56;6.77;;;2.33;;
23506;SDS011;11930;53.076;18.250;2024-02-04T03:01:22;8.23;;;2.37;;
23506;SDS011;11930;53.076;18.250;2024-02-04T03:03:49;5.47;;;2.60;;
23506;SDS011;11930;53.076;18.250;2024-02-04T03:06:15;8.73;;;2.17;;
23506;SDS011;11930;53.076;18.250;2024-02-04T03:08:42;10.33;;;2.13;;
23506;SDS011;11930;53.076;18.250;2024-02-04T03:11:08;11.23;;;2.20;;
23506;SDS011;11930;53.076;18.250;2024-02-04T03:13:34;10.77;;;2.33;;
23506;SDS011;11930;53.076;18.250;2024-02-04T03:16:09;13.57;;;2.70;;
23506;SDS011;11930;53.076;18.250;2024-02-04T03:18:40;14.10;;;2.77;;
23506;SDS011;11930;53.076;18.250;2024-02-04T03:21:13;10.30;;;2.47;;
23506;SDS011;11930;53.076;18.250;2024-02-04T03:23:41;7.23;;;1.87;;
23506;SDS011;11930;53.076;18.250;2024-02-04T03:26:08;12.07;;;2.17;;
23506;SDS011;11930;53.076;18.250;2024-02-04T03:28:37;7.97;;;1.90;;
23506;SDS011;11930;53.076;18.250;2024-02-04T03:31:03;7.60;;;2.17;;
23506;SDS011;11930;53.076;18.250;2024-02-04T03:33:30;6.27;;;2.17;;
23506;SDS011;11930;53.076;18.250;2024-02-04T03:35:56;6.17;;;1.90;;
23506;SDS011;11930;53.076;18.250;2024-02-04T03:38:22;12.13;;;2.17;;
23506;SDS011;11930;53.076;18.250;2024-02-04T03:40:50;6.60;;;2.03;;
23506;SDS011;11930;53.076;18.250;2024-02-04T03:43:17;9.40;;;2.30;;
23506;SDS011;11930;53.076;18.250;2024-02-04T03:45:43;10.37;;;1.80;;
23506;SDS011;11930;53.076;18.250;2024-02-04T03:48:09;8.43;;;2.00;;
23506;SDS011;11930;53.076;18.250;2024-02-04T03:50:35;11.47;;;1.87;;
23506;SDS011;11930;53.076;18.250;2024-02-04T03:53:02;10.60;;;2.53;;
23506;SDS011;11930;53.076;18.250;2024-02-04T03:55:28;11.03;;;1.67;;
23506;SDS011;11930;53.076;18.250;2024-02-04T03:57:55;6.70;;;1.80;;
23506;SDS011;11930;53.076;18.250;2024-02-04T04:00:22;10.63;;;2.23;;
23506;SDS011;11930;53.076;18.250;2024-02-04T04:02:49;7.97;;;2.00;;
23506;SDS011;11930;53.076;18.250;2024-02-04T04:05:15;9.97;;;1.97;;
23506;SDS011;11930;53.076;18.250;2024-02-04T04:07:41;7.00;;;1.67;;
23506;SDS011;11930;53.076;18.250;2024-02-04T04:10:07;9.37;;;2.10;;
23506;SDS011;11930;53.076;18.250;2024-02-04T04:12:33;9.13;;;2.07;;
23506;SDS011;11930;53.076;18.250;2024-02-04T04:14:59;6.37;;;1.50;;
23506;SDS011;11930;53.076;18.250;2024-02-04T04:17:26;7.10;;;1.80;;
23506;SDS011;11930;53.076;18.250;2024-02-04T04:19:52;9.17;;;1.77;;
23506;SDS011;11930;53.076;18.250;2024-02-04T04:22:18;9.57;;;2.20;;
23506;SDS011;11930;53.076;18.250;2024-02-04T04:24:44;7.20;;;1.90;;
23506;SDS011;11930;53.076;18.250;2024-02-04T04:27:10;8.57;;;2.13;;
23506;SDS011;11930;53.076;18.250;2024-02-04T04:29:36;9.30;;;2.50;;
23506;SDS011;11930;53.076;18.250;2024-02-04T04:32:03;8.33;;;1.80;;
23506;SDS011;11930;53.076;18.250;2024-02-04T04:34:29;9.47;;;2.40;;
23506;SDS011;11930;53.076;18.250;2024-02-04T04:36:55;7.40;;;2.23;;
23506;SDS011;11930;53.076;18.250;2024-02-04T04:39:21;9.77;;;2.57;;
23506;SDS011;11930;53.076;18.250;2024-02-04T04:41:48;11.53;;;2.93;;
23506;SDS011;11930;53.076;18.250;2024-02-04T04:44:14;10.03;;;2.77;;
23506;SDS011;11930;53.076;18.250;2024-02-04T04:46:40;8.37;;;2.50;;
23506;SDS011;11930;53.076;18.250;2024-02-04T04:49:06;13.37;;;3.37;;
23506;SDS011;11930;53.076;18.250;2024-02-04T04:51:33;12.13;;;2.40;;
23506;SDS011;11930;53.076;18.250;2024-02-04T04:53:59;10.60;;;3.03;;
23506;SDS011;11930;53.076;18.250;2024-02-04T04:56:25;13.07;;;4.17;;
23506;SDS011;11930;53.076;18.250;2024-02-04T04:58:51;9.70;;;2.20;;
23506;SDS011;11930;53.076;18.250;2024-02-04T05:01:18;8.87;;;2.60;;
23506;SDS011;11930;53.076;18.250;2024-02-04T05:03:44;9.30;;;2.80;;
23506;SDS011;11930;53.076;18.250;2024-02-04T05:06:11;9.80;;;2.43;;
23506;SDS011;11930;53.076;18.250;2024-02-04T05:08:37;8.10;;;2.37;;
23506;SDS011;11930;53.076;18.250;2024-02-04T05:11:03;13.67;;;2.30;;
23506;SDS011;11930;53.076;18.250;2024-02-04T05:13:29;8.20;;;2.40;;
23506;SDS011;11930;53.076;18.250;2024-02-04T05:15:56;10.03;;;2.40;;
23506;SDS011;11930;53.076;18.250;2024-02-04T05:18:22;8.30;;;2.17;;
23506;SDS011;11930;53.076;18.250;2024-02-04T05:20:52;12.07;;;2.50;;
23506;SDS011;11930;53.076;18.250;2024-02-04T05:23:17;8.03;;;1.87;;
23506;SDS011;11930;53.076;18.250;2024-02-04T05:25:44;8.97;;;1.90;;
23506;SDS011;11930;53.076;18.250;2024-02-04T05:28:10;9.67;;;2.80;;
23506;SDS011;11930;53.076;18.250;2024-02-04T05:30:36;6.27;;;1.60;;
23506;SDS011;11930;53.076;18.250;2024-02-04T05:33:02;6.87;;;1.80;;
23506;SDS011;11930;53.076;18.250;2024-02-04T05:35:29;8.70;;;2.23;;
23506;SDS011;11930;53.076;18.250;2024-02-04T05:37:55;5.77;;;1.83;;
23506;SDS011;11930;53.076;18.250;2024-02-04T05:40:21;9.83;;;2.43;;
23506;SDS011;11930;53.076;18.250;2024-02-04T05:42:47;7.33;;;1.50;;
23506;SDS011;11930;53.076;18.250;2024-02-04T05:45:14;8.67;;;1.90;;
23506;SDS011;11930;53.076;18.250;2024-02-04T05:47:40;6.90;;;1.60;;
23506;SDS011;11930;53.076;18.250;2024-02-04T05:50:06;7.77;;;1.73;;
23506;SDS011;11930;53.076;18.250;2024-02-04T05:52:33;10.27;;;1.60;;
23506;SDS011;11930;53.076;18.250;2024-02-04T05:54:59;7.20;;;2.60;;
23506;SDS011;11930;53.076;18.250;2024-02-04T05:57:25;7.40;;;2.40;;
23506;SDS011;11930;53.076;18.250;2024-02-04T05:59:51;7.67;;;2.20;;
23506;SDS011;11930;53.076;18.250;2024-02-04T06:02:18;6.47;;;1.90;;
23506;SDS011;11930;53.076;18.250;2024-02-04T06:04:44;6.03;;;1.90;;
23506;SDS011;11930;53.076;18.250;2024-02-04T06:07:11;6.20;;;1.70;;
23506;SDS011;11930;53.076;18.250;2024-02-04T06:09:37;7.97;;;2.00;;
23506;SDS011;11930;53.076;18.250;2024-02-04T06:12:03;7.20;;;1.60;;
23506;SDS011;11930;53.076;18.250;2024-02-04T06:14:33;10.23;;;2.07;;
23506;SDS011;11930;53.076;18.250;2024-02-04T06:17:00;6.17;;;1.70;;
23506;SDS011;11930;53.076;18.250;2024-02-04T06:19:26;11.10;;;1.90;;
23506;SDS011;11930;53.076;18.250;2024-02-04T06:21:52;7.57;;;1.63;;
23506;SDS011;11930;53.076;18.250;2024-02-04T06:24:19;9.57;;;1.67;;
23506;SDS011;11930;53.076;18.250;2024-02-04T06:26:45;9.10;;;1.80;;
23506;SDS011;11930;53.076;18.250;2024-02-04T06:29:12;7.73;;;2.00;;
23506;SDS011;11930;53.076;18.250;2024-02-04T06:31:38;6.80;;;1.60;;
23506;SDS011;11930;53.076;18.250;2024-02-04T06:34:04;5.80;;;1.43;;
23506;SDS011;11930;53.076;18.250;2024-02-04T06:36:30;7.20;;;1.60;;
23506;SDS011;11930;53.076;18.250;2024-02-04T06:38:56;8.07;;;1.70;;
23506;SDS011;11930;53.076;18.250;2024-02-04T06:41:23;11.50;;;2.23;;
23506;SDS011;11930;53.076;18.250;2024-02-04T06:43:49;7.13;;;1.63;;
23506;SDS011;11930;53.076;18.250;2024-02-04T06:46:23;7.50;;;2.00;;
23506;SDS011;11930;53.076;18.250;2024-02-04T06:48:50;6.77;;;1.83;;
23506;SDS011;11930;53.076;18.250;2024-02-04T06:51:16;8.73;;;2.00;;
23506;SDS011;11930;53.076;18.250;2024-02-04T06:53:43;6.00;;;2.53;;
23506;SDS011;11930;53.076;18.250;2024-02-04T06:56:09;10.03;;;2.30;;
23506;SDS011;11930;53.076;18.250;2024-02-04T06:58:38;7.47;;;2.60;;
23506;SDS011;11930;53.076;18.250;2024-02-04T07:01:04;7.53;;;2.33;;
23506;SDS011;11930;53.076;18.250;2024-02-04T07:03:31;7.37;;;2.10;;
23506;SDS011;11930;53.076;18.250;2024-02-04T07:05:58;9.70;;;2.50;;
23506;SDS011;11930;53.076;18.250;2024-02-04T07:08:25;7.77;;;2.20;;
23506;SDS011;11930;53.076;18.250;2024-02-04T07:10:51;6.80;;;2.20;;
23506;SDS011;11930;53.076;18.250;2024-02-04T07:13:19;10.13;;;1.97;;
23506;SDS011;11930;53.076;18.250;2024-02-04T07:15:45;11.60;;;2.00;;
23506;SDS011;11930;53.076;18.250;2024-02-04T07:18:11;12.20;;;2.63;;
23506;SDS011;11930;53.076;18.250;2024-02-04T07:20:37;7.53;;;2.07;;
23506;SDS011;11930;53.076;18.250;2024-02-04T07:23:04;11.53;;;2.43;;
23506;SDS011;11930;53.076;18.250;2024-02-04T07:25:30;14.73;;;5.10;;
23506;SDS011;11930;53.076;18.250;2024-02-04T07:27:57;80.60;;;31.63;;
23506;SDS011;11930;53.076;18.250;2024-02-04T07:30:23;47.40;;;20.63;;
23506;SDS011;11930;53.076;18.250;2024-02-04T07:32:50;26.00;;;11.47;;
23506;SDS011;11930;53.076;18.250;2024-02-04T07:35:16;19.67;;;8.80;;
23506;SDS011;11930;53.076;18.250;2024-02-04T07:37:42;8.53;;;3.13;;
23506;SDS011;11930;53.076;18.250;2024-02-04T07:40:09;13.63;;;2.93;;
23506;SDS011;11930;53.076;18.250;2024-02-04T07:42:36;10.83;;;2.40;;
23506;SDS011;11930;53.076;18.250;2024-02-04T07:45:02;11.80;;;2.53;;
23506;SDS011;11930;53.076;18.250;2024-02-04T07:47:35;8.00;;;2.23;;
23506;SDS011;11930;53.076;18.250;2024-02-04T07:50:01;6.77;;;2.07;;
23506;SDS011;11930;53.076;18.250;2024-02-04T07:52:28;11.20;;;2.47;;
23506;SDS011;11930;53.076;18.250;2024-02-04T07:54:54;7.60;;;2.37;;
23506;SDS011;11930;53.076;18.250;2024-02-04T07:57:21;6.40;;;2.53;;
23506;SDS011;11930;53.076;18.250;2024-02-04T07:59:47;9.67;;;2.40;;
23506;SDS011;11930;53.076;18.250;2024-02-04T08:02:13;9.43;;;2.37;;
23506;SDS011;11930;53.076;18.250;2024-02-04T08:04:42;9.90;;;2.60;;
23506;SDS011;11930;53.076;18.250;2024-02-04T08:07:08;7.40;;;2.13;;
23506;SDS011;11930;53.076;18.250;2024-02-04T08:09:34;9.07;;;2.20;;
23506;SDS011;11930;53.076;18.250;2024-02-04T08:12:01;7.53;;;2.30;;
23506;SDS011;11930;53.076;18.250;2024-02-04T08:14:27;4.77;;;1.90;;
23506;SDS011;11930;53.076;18.250;2024-02-04T08:16:53;9.03;;;2.87;;
23506;SDS011;11930;53.076;18.250;2024-02-04T08:19:19;12.40;;;2.70;;
23506;SDS011;11930;53.076;18.250;2024-02-04T08:21:45;8.83;;;2.63;;
23506;SDS011;11930;53.076;18.250;2024-02-04T08:24:11;13.63;;;3.30;;
23506;SDS011;11930;53.076;18.250;2024-02-04T08:26:38;10.33;;;2.50;;
23506;SDS011;11930;53.076;18.250;2024-02-04T08:29:04;10.40;;;2.57;;
23506;SDS011;11930;53.076;18.250;2024-02-04T08:31:31;7.80;;;2.90;;
23506;SDS011;11930;53.076;18.250;2024-02-04T08:33:59;7.63;;;2.60;;
23506;SDS011;11930;53.076;18.250;2024-02-04T08:36:25;9.73;;;2.80;;
23506;SDS011;11930;53.076;18.250;2024-02-04T08:38:51;11.33;;;2.50;;
23506;SDS011;11930;53.076;18.250;2024-02-04T08:41:18;10.90;;;2.80;;
23506;SDS011;11930;53.076;18.250;2024-02-04T08:43:44;7.57;;;2.80;;
23506;SDS011;11930;53.076;18.250;2024-02-04T08:46:10;13.03;;;3.10;;
23506;SDS011;11930;53.076;18.250;2024-02-04T08:48:37;10.87;;;2.63;;
23506;SDS011;11930;53.076;18.250;2024-02-04T08:51:03;8.40;;;2.37;;
23506;SDS011;11930;53.076;18.250;2024-02-04T08:53:30;9.40;;;2.80;;
23506;SDS011;11930;53.076;18.250;2024-02-04T08:55:56;8.53;;;2.50;;
23506;SDS011;11930;53.076;18.250;2024-02-04T08:58:22;9.23;;;2.57;;
23506;SDS011;11930;53.076;18.250;2024-02-04T09:00:48;8.17;;;2.33;;
23506;SDS011;11930;53.076;18.250;2024-02-04T09:03:14;8.00;;;2.33;;
23506;SDS011;11930;53.076;18.250;2024-02-04T09:05:41;10.27;;;2.77;;
23506;SDS011;11930;53.076;18.250;2024-02-04T09:08:07;9.53;;;2.47;;
23506;SDS011;11930;53.076;18.250;2024-02-04T09:10:33;15.60;;;3.07;;
23506;SDS011;11930;53.076;18.250;2024-02-04T09:12:59;10.77;;;3.20;;
23506;SDS011;11930;53.076;18.250;2024-02-04T09:15:26;9.03;;;2.70;;
23506;SDS011;11930;53.076;18.250;2024-02-04T09:17:52;8.70;;;2.40;;
23506;SDS011;11930;53.076;18.250;2024-02-04T09:20:18;10.10;;;2.67;;
23506;SDS011;11930;53.076;18.250;2024-02-04T09:22:44;10.17;;;2.80;;
23506;SDS011;11930;53.076;18.250;2024-02-04T09:25:11;11.00;;;2.07;;
23506;SDS011;11930;53.076;18.250;2024-02-04T09:27:37;11.43;;;2.40;;
23506;SDS011;11930;53.076;18.250;2024-02-04T09:30:03;9.33;;;3.07;;
23506;SDS011;11930;53.076;18.250;2024-02-04T09:32:31;8.23;;;2.70;;
23506;SDS011;11930;53.076;18.250;2024-02-04T09:34:58;9.73;;;2.73;;
23506;SDS011;11930;53.076;18.250;2024-02-04T09:37:24;9.47;;;2.23;;
23506;SDS011;11930;53.076;18.250;2024-02-04T09:39:50;7.10;;;2.13;;
23506;SDS011;11930;53.076;18.250;2024-02-04T09:42:18;9.43;;;2.47;;
23506;SDS011;11930;53.076;18.250;2024-02-04T09:44:50;7.47;;;2.43;;
23506;SDS011;11930;53.076;18.250;2024-02-04T09:47:16;8.13;;;3.03;;
23506;SDS011;11930;53.076;18.250;2024-02-04T09:49:43;11.90;;;3.03;;
23506;SDS011;11930;53.076;18.250;2024-02-04T09:52:09;11.57;;;4.03;;
23506;SDS011;11930;53.076;18.250;2024-02-04T09:54:43;13.63;;;4.73;;
23506;SDS011;11930;53.076;18.250;2024-02-04T09:57:15;12.00;;;4.10;;
23506;SDS011;11930;53.076;18.250;2024-02-04T09:59:44;10.47;;;2.90;;
23506;SDS011;11930;53.076;18.250;2024-02-04T10:02:10;13.37;;;5.00;;
23506;SDS011;11930;53.076;18.250;2024-02-04T10:04:36;10.63;;;3.77;;
23506;SDS011;11930;53.076;18.250;2024-02-04T10:07:02;8.60;;;2.80;;
23506;SDS011;11930;53.076;18.250;2024-02-04T10:09:29;7.30;;;2.60;;
23506;SDS011;11930;53.076;18.250;2024-02-04T10:11:56;9.70;;;2.50;;
23506;SDS011;11930;53.076;18.250;2024-02-04T10:14:23;7.40;;;2.57;;
23506;SDS011;11930;53.076;18.250;2024-02-04T10:16:49;8.53;;;2.63;;
23506;SDS011;11930;53.076;18.250;2024-02-04T10:19:16;7.87;;;2.77;;
23506;SDS011;11930;53.076;18.250;2024-02-04T10:21:42;7.43;;;2.70;;
23506;SDS011;11930;53.076;18.250;2024-02-04T10:24:08;8.83;;;2.30;;
23506;SDS011;11930;53.076;18.250;2024-02-04T10:26:35;11.97;;;2.93;;
23506;SDS011;11930;53.076;18.250;2024-02-04T10:29:03;9.27;;;2.60;;
23506;SDS011;11930;53.076;18.250;2024-02-04T10:31:29;7.40;;;2.30;;
23506;SDS011;11930;53.076;18.250;2024-02-04T10:33:56;9.93;;;2.70;;
23506;SDS011;11930;53.076;18.250;2024-02-04T10:36:22;10.90;;;2.60;;
23506;SDS011;11930;53.076;18.250;2024-02-04T10:38:48;7.67;;;2.73;;
23506;SDS011;11930;53.076;18.250;2024-02-04T10:41:15;9.37;;;2.50;;
23506;SDS011;11930;53.076;18.250;2024-02-04T10:43:43;8.77;;;2.90;;
23506;SDS011;11930;53.076;18.250;2024-02-04T10:46:13;8.50;;;2.80;;
23506;SDS011;11930;53.076;18.250;2024-02-04T10:48:43;6.77;;;2.00;;
23506;SDS011;11930;53.076;18.250;2024-02-04T10:51:17;7.07;;;2.17;;
23506;SDS011;11930;53.076;18.250;2024-02-04T10:53:47;6.80;;;2.10;;
23506;SDS011;11930;53.076;18.250;2024-02-04T10:59:03;6.63;;;2.57;;
23506;SDS011;11930;53.076;18.250;2024-02-04T11:01:31;8.57;;;2.57;;
23506;SDS011;11930;53.076;18.250;2024-02-04T11:03:59;8.20;;;2.20;;
23506;SDS011;11930;53.076;18.250;2024-02-04T11:06:26;6.13;;;2.40;;
23506;SDS011;11930;53.076;18.250;2024-02-04T11:08:54;6.13;;;2.03;;
23506;SDS011;11930;53.076;18.250;2024-02-04T11:11:22;9.47;;;2.50;;
23506;SDS011;11930;53.076;18.250;2024-02-04T11:13:50;7.50;;;2.27;;
23506;SDS011;11930;53.076;18.250;2024-02-04T11:16:40;6.87;;;1.70;;
23506;SDS011;11930;53.076;18.250;2024-02-04T11:28:10;7.53;;;2.17;;
23506;SDS011;11930;53.076;18.250;2024-02-04T11:30:38;8.40;;;2.20;;
23506;SDS011;11930;53.076;18.250;2024-02-04T11:33:05;5.93;;;1.87;;
23506;SDS011;11930;53.076;18.250;2024-02-04T11:35:32;7.57;;;1.90;;
23506;SDS011;11930;53.076;18.250;2024-02-04T11:37:59;8.23;;;2.57;;
23506;SDS011;11930;53.076;18.250;2024-02-04T11:40:35;7.20;;;2.00;;
23506;SDS011;11930;53.076;18.250;2024-02-04T11:43:12;8.33;;;3.33;;
23506;SDS011;11930;53.076;18.250;2024-02-04T11:45:40;7.37;;;2.27;;
23506;SDS011;11930;53.076;18.250;2024-02-04T11:48:09;6.70;;;2.10;;
23506;SDS011;11930;53.076;18.250;2024-02-04T11:50:37;6.43;;;1.93;;
23506;SDS011;11930;53.076;18.250;2024-02-04T11:53:05;5.77;;;1.83;;
23506;SDS011;11930;53.076;18.250;2024-02-04T11:55:32;5.90;;;2.27;;
23506;SDS011;11930;53.076;18.250;2024-02-04T11:57:59;11.43;;;2.60;;
23506;SDS011;11930;53.076;18.250;2024-02-04T12:00:26;11.17;;;5.17;;
23506;SDS011;11930;53.076;18.250;2024-02-04T12:05:31;5.93;;;2.13;;
23506;SDS011;11930;53.076;18.250;2024-02-04T12:08:01;6.03;;;2.10;;
23506;SDS011;11930;53.076;18.250;2024-02-04T12:10:31;6.80;;;2.30;;
23506;SDS011;11930;53.076;18.250;2024-02-04T12:12:58;7.47;;;1.80;;
23506;SDS011;11930;53.076;18.250;2024-02-04T12:15:26;7.20;;;1.97;;
23506;SDS011;11930;53.076;18.250;2024-02-04T12:17:52;6.27;;;1.93;;
23506;SDS011;11930;53.076;18.250;2024-02-04T12:20:18;3.87;;;1.70;;
23506;SDS011;11930;53.076;18.250;2024-02-04T12:22:45;4.00;;;1.83;;
23506;SDS011;11930;53.076;18.250;2024-02-04T12:25:11;4.53;;;1.87;;
23506;SDS011;11930;53.076;18.250;2024-02-04T12:27:37;7.13;;;1.80;;
23506;SDS011;11930;53.076;18.250;2024-02-04T12:30:04;4.50;;;1.90;;
23506;SDS011;11930;53.076;18.250;2024-02-04T12:32:31;9.07;;;2.17;;
23506;SDS011;11930;53.076;18.250;2024-02-04T12:34:57;7.40;;;2.27;;
23506;SDS011;11930;53.076;18.250;2024-02-04T12:37:23;6.40;;;1.70;;
23506;SDS011;11930;53.076;18.250;2024-02-04T12:39:52;7.00;;;2.13;;
23506;SDS011;11930;53.076;18.250;2024-02-04T12:42:18;9.80;;;2.30;;
23506;SDS011;11930;53.076;18.250;2024-02-04T12:44:48;5.70;;;2.20;;
23506;SDS011;11930;53.076;18.250;2024-02-04T12:47:18;6.80;;;2.00;;
23506;SDS011;11930;53.076;18.250;2024-02-04T12:49:45;7.80;;;2.23;;
23506;SDS011;11930;53.076;18.250;2024-02-04T12:52:11;6.10;;;1.70;;
23506;SDS011;11930;53.076;18.250;2024-02-04T12:54:42;6.27;;;2.40;;
23506;SDS011;11930;53.076;18.250;2024-02-04T12:57:09;8.10;;;2.73;;
23506;SDS011;11930;53.076;18.250;2024-02-04T12:59:37;4.70;;;1.93;;
23506;SDS011;11930;53.076;18.250;2024-02-04T13:02:05;8.20;;;2.00;;
23506;SDS011;11930;53.076;18.250;2024-02-04T13:04:38;5.87;;;2.30;;
23506;SDS011;11930;53.076;18.250;2024-02-04T13:07:10;5.67;;;2.23;;
23506;SDS011;11930;53.076;18.250;2024-02-04T13:09:44;6.10;;;1.90;;
23506;SDS011;11930;53.076;18.250;2024-02-04T13:12:10;6.57;;;2.07;;
23506;SDS011;11930;53.076;18.250;2024-02-04T13:14:41;4.60;;;1.70;;
23506;SDS011;11930;53.076;18.250;2024-02-04T13:17:07;7.40;;;2.00;;
23506;SDS011;11930;53.076;18.250;2024-02-04T13:19:35;7.20;;;2.30;;
23506;SDS011;11930;53.076;18.250;2024-02-04T13:22:03;7.43;;;2.00;;
23506;SDS011;11930;53.076;18.250;2024-02-04T13:24:33;7.20;;;2.43;;
23506;SDS011;11930;53.076;18.250;2024-02-04T13:26:59;4.23;;;1.60;;
23506;SDS011;11930;53.076;18.250;2024-02-04T13:29:30;6.83;;;2.17;;
23506;SDS011;11930;53.076;18.250;2024-02-04T13:31:56;5.27;;;2.17;;
23506;SDS011;11930;53.076;18.250;2024-02-04T13:34:23;14.53;;;6.87;;
23506;SDS011;11930;53.076;18.250;2024-02-04T13:36:49;7.10;;;3.70;;
23506;SDS011;11930;53.076;18.250;2024-02-04T13:39:17;6.50;;;3.43;;
23506;SDS011;11930;53.076;18.250;2024-02-04T13:41:43;5.23;;;2.70;;
23506;SDS011;11930;53.076;18.250;2024-02-04T13:44:10;5.43;;;2.00;;
23506;SDS011;11930;53.076;18.250;2024-02-04T13:46:36;5.50;;;2.43;;
23506;SDS011;11930;53.076;18.250;2024-02-04T13:49:04;8.83;;;2.33;;
23506;SDS011;11930;53.076;18.250;2024-02-04T13:51:32;5.27;;;2.50;;
23506;SDS011;11930;53.076;18.250;2024-02-04T13:53:58;6.63;;;2.30;;
23506;SDS011;11930;53.076;18.250;2024-02-04T13:56:24;6.70;;;2.47;;
23506;SDS011;11930;53.076;18.250;2024-02-04T13:58:51;5.03;;;2.07;;
23506;SDS011;11930;53.076;18.250;2024-02-04T14:01:17;6.80;;;2.67;;
23506;SDS011;11930;53.076;18.250;2024-02-04T14:03:45;9.13;;;3.00;;
23506;SDS011;11930;53.076;18.250;2024-02-04T14:06:11;7.10;;;2.87;;
23506;SDS011;11930;53.076;18.250;2024-02-04T14:08:38;8.30;;;3.10;;
23506;SDS011;11930;53.076;18.250;2024-02-04T14:11:04;5.90;;;2.80;;
23506;SDS011;11930;53.076;18.250;2024-02-04T14:13:31;7.33;;;2.57;;
23506;SDS011;11930;53.076;18.250;2024-02-04T14:15:58;8.03;;;2.77;;
23506;SDS011;11930;53.076;18.250;2024-02-04T14:18:24;7.57;;;2.37;;
23506;SDS011;11930;53.076;18.250;2024-02-04T14:20:50;8.67;;;2.77;;
23506;SDS011;11930;53.076;18.250;2024-02-04T14:23:17;9.73;;;3.17;;
23506;SDS011;11930;53.076;18.250;2024-02-04T14:25:43;9.33;;;3.23;;
23506;SDS011;11930;53.076;18.250;2024-02-04T14:28:11;7.37;;;2.70;;
23506;SDS011;11930;53.076;18.250;2024-02-04T14:30:38;7.73;;;2.73;;
23506;SDS011;11930;53.076;18.250;2024-02-04T14:33:04;6.07;;;2.90;;
23506;SDS011;11930;53.076;18.250;2024-02-04T14:35:30;4.67;;;2.30;;
23506;SDS011;11930;53.076;18.250;2024-02-04T14:37:57;6.23;;;2.60;;
23506;SDS011;11930;53.076;18.250;2024-02-04T14:40:23;8.50;;;3.67;;
23506;SDS011;11930;53.076;18.250;2024-02-04T14:42:50;4.87;;;2.20;;
23506;SDS011;11930;53.076;18.250;2024-02-04T14:45:17;14.97;;;4.87;;
23506;SDS011;11930;53.076;18.250;2024-02-04T14:47:44;5.90;;;3.10;;